Saint Louis, Missouri
Traffic Map
Current Weather Conditions
Saint Louis, Missouri
Clear
Clear
44°
Feels Like: 42°
Wind Chill: 42° Ceiling: Unl
Heat Index: 44° Visibility: 10mi
Dew Point: 39° Wind: 5mph
Humidity: 82% Direction: 150° (SSE)
Pressure: 30.15in Gusts: 0mph
Raw Report DataKCPS 301353Z 15004KT 10SM CLR 07/04 A3015 RMK AO2 SLP211 T00670039
Traffic Incident Summary
Active as of:
Severity:
Category:
InformationThere was an issue retrieving the traffic information for this location. Please try a different location or try again shortly.
Advertisements
Track Severe Weather on mobile